Ana Sayfa
METAR-TAF:

METAR-TAF

Havaalanları :

Kosrae, Mikronezya

Enlem: 05-21N, Boylam: 162-57E, yükseklik: 3 m

Güncel hava durumu gözlemi

Rapor saat 02:00 UTC de 1 saat ve 14 dakika önce yapıldı.
Rüzgar kuzeydan 8 kt
Sıcaklık 31°C
Nem 71%
Basınç 1005 hPa
Görüş mesafesi: 16.1 km
1800 ft yükseklikte parçalı bulutlu, Yükselen kümülüs.
30000 ft yükseklikte parçalı çok bulutlu

METAR: PTSA 230200Z 36008KT 10SM SCT018TCU BKN300 31/25 A2969 RMK TCU S

Saat: 14:14 (03:14 UTC)

Tahmin

Rapor saat 23:32 UTC de 3 saat ve 42 dakika önce yapıldı.
Ayın 23'si saat 00 UTC'den ayın 23'si saat 24 UTC'ye kadar geçerli Tahmin
Rüzgar kuzeydan 7 kt
Görüş mesafesi: 10 km
2000 ft yükseklikte parçalı bulutlu
Civarda sağanaklar

TAF: PTSA 222332Z 2300/2324 35007KT P6SM VCSH SCT020

4.000'den fazla havaalanı için hava durumu gözlemleri ve tahminleri (METAR ve TAF raporları).

Kullanılabilir istasyonlar harita üzerinde sarı ve kırmızı noktalarla gösterilir.

İstasyonun adını görmek için fareyi noktanın üzerinde gezdirin.

Sonrasında hava gözlem ve tahminlerini görmek için tıklayın.

Haritayı değiştirmek için: yaklaştırmak için siyah artı işaretli yeşil düğmeye ve uzaklaştırmak için de eksi işaretli düğmeye hızla tıklayın; bitişik haritalar için yeşil okları kullanın.


METAR-TAF: